IKS7054 SBJP-SBGL
Flight info
| Callsign | IKS7054 |
|---|---|
| Flight time | N/A |
| Altitude | 34000 |
| Route | ARPU1B KADOR UZ14 ARUDI UZ32 SATBU UN857 MUDSI UZ11 EDVEG |
| Aircraft | B736/M-SDE2E3FGHIRWXY/LB1 |
Departure
| Time | 2026-04-21 14:20 |
|---|---|
| Airport | Presidente Castro Pinto International Airport (SBJP) |
Arrival
| Time | N/A |
|---|---|
| Airport | Rio Galeão – Tom Jobim International Airport (SBGL) |
| Time | Latitude | Longitude | Altitude | Speed | Heading |
|---|---|---|---|---|---|
| 2026-04-21 13:54 | -7.14306 | -34.95309 | 223 ft | 0 kts | 10° |
| 2026-04-21 14:07 | -7.14320 | -34.95312 | 223 ft | 3 kts | 5° |
| 2026-04-21 14:07 | -7.14340 | -34.95312 | 223 ft | 3 kts | 352° |
| 2026-04-21 14:07 | -7.14359 | -34.95308 | 223 ft | 3 kts | 331° |
| 2026-04-21 14:07 | -7.14374 | -34.95297 | 223 ft | 3 kts | 297° |
| 2026-04-21 14:08 | -7.14378 | -34.95287 | 223 ft | 1 kts | 285° |
| 2026-04-21 14:08 | -7.14378 | -34.95285 | 223 ft | 0 kts | 285° |
| 2026-04-21 14:13 | -7.14376 | -34.95293 | 223 ft | 3 kts | 285° |
| 2026-04-21 14:14 | -7.14390 | -34.95319 | 223 ft | 6 kts | 210° |
| 2026-04-21 14:14 | -7.14440 | -34.95335 | 223 ft | 9 kts | 197° |
| 2026-04-21 14:14 | -7.14511 | -34.95358 | 223 ft | 12 kts | 205° |
| 2026-04-21 14:14 | -7.14494 | -34.95422 | 223 ft | 12 kts | 316° |
| 2026-04-21 14:15 | -7.14427 | -34.95488 | 223 ft | 14 kts | 315° |
| 2026-04-21 14:15 | -7.14363 | -34.95552 | 223 ft | 13 kts | 315° |
| 2026-04-21 14:15 | -7.14300 | -34.95615 | 223 ft | 12 kts | 315° |
| 2026-04-21 14:15 | -7.14241 | -34.95673 | 223 ft | 12 kts | 315° |
| 2026-04-21 14:16 | -7.14184 | -34.95731 | 223 ft | 11 kts | 315° |
| 2026-04-21 14:16 | -7.14129 | -34.95785 | 223 ft | 8 kts | 315° |
| 2026-04-21 14:16 | -7.14088 | -34.95800 | 223 ft | 7 kts | 5° |
| 2026-04-21 14:16 | -7.14052 | -34.95821 | 223 ft | 7 kts | 288° |
| 2026-04-21 14:17 | -7.14081 | -34.95835 | 223 ft | 7 kts | 148° |
| 2026-04-21 14:17 | -7.14086 | -34.95832 | 223 ft | 0 kts | 135° |
| 2026-04-21 14:19 | -7.14088 | -34.95830 | 223 ft | 6 kts | 135° |
| 2026-04-21 14:19 | -7.14274 | -34.95642 | 223 ft | 71 kts | 135° |
| 2026-04-21 14:19 | -7.14770 | -34.95147 | 225 ft | 127 kts | 134° |
| 2026-04-21 14:19 | -7.15447 | -34.94465 | 567 ft | 142 kts | 134° |
| 2026-04-21 14:20 | -7.16145 | -34.93785 | 1241 ft | 136 kts | 134° |
| 2026-04-21 14:20 | -7.16866 | -34.93109 | 1718 ft | 149 kts | 136° |
| 2026-04-21 14:20 | -7.17652 | -34.92425 | 2370 ft | 150 kts | 138° |
| 2026-04-21 14:20 | -7.18448 | -34.91656 | 2843 ft | 170 kts | 135° |
| 2026-04-21 14:21 | -7.19306 | -34.90754 | 3248 ft | 192 kts | 133° |
| 2026-04-21 14:21 | -7.20305 | -34.89685 | 3604 ft | 220 kts | 134° |
| 2026-04-21 14:21 | -7.21410 | -34.88520 | 4190 ft | 240 kts | 134° |
| 2026-04-21 14:21 | -7.22592 | -34.87293 | 5040 ft | 249 kts | 134° |
| 2026-04-21 14:22 | -7.23818 | -34.86033 | 6011 ft | 254 kts | 134° |
| 2026-04-21 14:22 | -7.25054 | -34.84769 | 6972 ft | 258 kts | 135° |
| 2026-04-21 14:22 | -7.26330 | -34.83476 | 7904 ft | 262 kts | 135° |
| 2026-04-21 14:22 | -7.27635 | -34.82156 | 8562 ft | 269 kts | 135° |
| 2026-04-21 14:23 | -7.28963 | -34.80816 | 8888 ft | 271 kts | 135° |
| 2026-04-21 14:23 | -7.30302 | -34.79464 | 8971 ft | 272 kts | 135° |
| 2026-04-21 14:23 | -7.31641 | -34.78115 | 8968 ft | 272 kts | 135° |
| 2026-04-21 14:23 | -7.32973 | -34.76771 | 8964 ft | 270 kts | 135° |
| 2026-04-21 14:24 | -7.34305 | -34.75428 | 8964 ft | 270 kts | 135° |
| 2026-04-21 14:24 | -7.35636 | -34.74086 | 8963 ft | 270 kts | 135° |
| 2026-04-21 14:24 | -7.36950 | -34.72762 | 8964 ft | 271 kts | 135° |
| 2026-04-21 14:24 | -7.38282 | -34.71419 | 8964 ft | 271 kts | 135° |
| 2026-04-21 14:25 | -7.39612 | -34.70078 | 8964 ft | 271 kts | 135° |
| 2026-04-21 14:25 | -7.40944 | -34.68735 | 8964 ft | 271 kts | 135° |
| 2026-04-21 14:25 | -7.42275 | -34.67393 | 8964 ft | 271 kts | 135° |
| 2026-04-21 14:25 | -7.43604 | -34.66053 | 8964 ft | 270 kts | 135° |
| 2026-04-21 14:26 | -7.44936 | -34.64711 | 8964 ft | 271 kts | 135° |
| 2026-04-21 14:26 | -7.46266 | -34.63370 | 8964 ft | 271 kts | 135° |
| 2026-04-21 14:26 | -7.47622 | -34.62049 | 8958 ft | 271 kts | 140° |
| 2026-04-21 14:26 | -7.49263 | -34.61140 | 8964 ft | 271 kts | 160° |
| 2026-04-21 14:27 | -7.51140 | -34.60746 | 9471 ft | 278 kts | 172° |
| 2026-04-21 14:27 | -7.53067 | -34.60634 | 10428 ft | 279 kts | 177° |
| 2026-04-21 14:27 | -7.55047 | -34.60616 | 11127 ft | 291 kts | 178° |
| 2026-04-21 14:27 | -7.57114 | -34.60569 | 11552 ft | 311 kts | 176° |
| 2026-04-21 14:28 | -7.59379 | -34.60486 | 11902 ft | 332 kts | 176° |
| 2026-04-21 14:28 | -7.61716 | -34.60385 | 12350 ft | 347 kts | 176° |
| 2026-04-21 14:28 | -7.64158 | -34.60273 | 13041 ft | 354 kts | 176° |
| 2026-04-21 14:28 | -7.66636 | -34.60157 | 13788 ft | 359 kts | 176° |
| 2026-04-21 14:29 | -7.69147 | -34.60040 | 14509 ft | 364 kts | 176° |
| 2026-04-21 14:29 | -7.71727 | -34.59988 | 15217 ft | 369 kts | 180° |
| 2026-04-21 14:29 | -7.74275 | -34.60104 | 15885 ft | 374 kts | 182° |
| 2026-04-21 14:29 | -7.76893 | -34.60280 | 16555 ft | 379 kts | 182° |
| 2026-04-21 14:30 | -7.79542 | -34.60416 | 17213 ft | 383 kts | 182° |
| 2026-04-21 14:30 | -7.82221 | -34.60537 | 17859 ft | 387 kts | 182° |
| 2026-04-21 14:30 | -7.84422 | -34.60634 | 18371 ft | 391 kts | 182° |
| 2026-04-21 14:30 | -7.87216 | -34.60757 | 18984 ft | 396 kts | 182° |
| 2026-04-21 14:31 | -7.89976 | -34.60878 | 19569 ft | 400 kts | 182° |
| 2026-04-21 14:31 | -7.92776 | -34.61000 | 20145 ft | 404 kts | 182° |
| 2026-04-21 14:31 | -7.95590 | -34.61122 | 20703 ft | 408 kts | 182° |
| 2026-04-21 14:31 | -7.98455 | -34.61248 | 21244 ft | 412 kts | 182° |
| 2026-04-21 14:32 | -8.01343 | -34.61377 | 21762 ft | 417 kts | 182° |
| 2026-04-21 14:32 | -8.04236 | -34.61715 | 22239 ft | 421 kts | 189° |
| 2026-04-21 14:32 | -8.07108 | -34.62399 | 22719 ft | 425 kts | 196° |
| 2026-04-21 14:32 | -8.09909 | -34.63377 | 23197 ft | 429 kts | 201° |
| 2026-04-21 14:33 | -8.12689 | -34.64513 | 23668 ft | 432 kts | 203° |
| 2026-04-21 14:33 | -8.14970 | -34.65485 | 24016 ft | 435 kts | 203° |
| 2026-04-21 14:33 | -8.17745 | -34.66656 | 24470 ft | 438 kts | 203° |
| 2026-04-21 14:33 | -8.20594 | -34.67848 | 24890 ft | 441 kts | 203° |
| 2026-04-21 14:34 | -8.23442 | -34.69035 | 25316 ft | 444 kts | 203° |
| 2026-04-21 14:34 | -8.26311 | -34.70226 | 25731 ft | 447 kts | 203° |
| 2026-04-21 14:34 | -8.29202 | -34.71425 | 26119 ft | 450 kts | 203° |
| 2026-04-21 14:34 | -8.32112 | -34.72631 | 26522 ft | 452 kts | 203° |
| 2026-04-21 14:35 | -8.35035 | -34.73841 | 26885 ft | 455 kts | 203° |
| 2026-04-21 14:35 | -8.37974 | -34.75055 | 27263 ft | 458 kts | 203° |
| 2026-04-21 14:35 | -8.40929 | -34.76276 | 27610 ft | 460 kts | 203° |
| 2026-04-21 14:35 | -8.43903 | -34.77505 | 27959 ft | 463 kts | 203° |
| 2026-04-21 14:36 | -8.46891 | -34.78741 | 28291 ft | 465 kts | 203° |
| 2026-04-21 14:36 | -8.49895 | -34.79983 | 28617 ft | 468 kts | 204° |
| 2026-04-21 14:36 | -8.52920 | -34.81234 | 28936 ft | 470 kts | 204° |
| 2026-04-21 14:36 | -8.55953 | -34.82490 | 29240 ft | 472 kts | 204° |
| 2026-04-21 14:37 | -8.59005 | -34.83753 | 29549 ft | 474 kts | 204° |
| 2026-04-21 14:37 | -8.62064 | -34.85019 | 29837 ft | 477 kts | 204° |
| 2026-04-21 14:37 | -8.64099 | -34.85862 | 30024 ft | 478 kts | 204° |
| 2026-04-21 14:37 | -8.67181 | -34.87138 | 30361 ft | 478 kts | 204° |
| 2026-04-21 14:38 | -8.71260 | -34.88827 | 30762 ft | 478 kts | 204° |
| 2026-04-21 14:38 | -8.73331 | -34.89685 | 30962 ft | 477 kts | 204° |
| 2026-04-21 14:38 | -8.76400 | -34.90956 | 31266 ft | 476 kts | 204° |
| 2026-04-21 14:38 | -8.79461 | -34.92223 | 31539 ft | 476 kts | 204° |
| 2026-04-21 14:39 | -8.82528 | -34.93494 | 31845 ft | 475 kts | 204° |
| 2026-04-21 14:39 | -8.85587 | -34.94762 | 32142 ft | 474 kts | 204° |
| 2026-04-21 14:39 | -8.88645 | -34.96031 | 32407 ft | 475 kts | 204° |
| 2026-04-21 14:39 | -8.91691 | -34.97294 | 32718 ft | 473 kts | 204° |
| 2026-04-21 14:40 | -8.94744 | -34.98561 | 33013 ft | 473 kts | 204° |
| 2026-04-21 14:40 | -8.97758 | -34.99812 | 33292 ft | 473 kts | 204° |
| 2026-04-21 14:40 | -9.00793 | -35.01072 | 33609 ft | 472 kts | 204° |
| 2026-04-21 14:40 | -9.03831 | -35.02333 | 33896 ft | 471 kts | 204° |
| 2026-04-21 14:41 | -9.06817 | -35.03722 | 33984 ft | 472 kts | 209° |
| 2026-04-21 14:41 | -9.12525 | -35.06950 | 33986 ft | 468 kts | 213° |
| 2026-04-21 14:42 | -9.18140 | -35.10272 | 33988 ft | 467 kts | 212° |
| 2026-04-21 14:42 | -9.23676 | -35.13503 | 33989 ft | 467 kts | 212° |
| 2026-04-21 14:43 | -9.29419 | -35.16838 | 33990 ft | 467 kts | 212° |
| 2026-04-21 14:43 | -9.35023 | -35.20087 | 33991 ft | 466 kts | 212° |
| 2026-04-21 14:44 | -9.40653 | -35.23342 | 33991 ft | 466 kts | 212° |
| 2026-04-21 14:44 | -9.46290 | -35.26604 | 33992 ft | 465 kts | 212° |
| 2026-04-21 14:45 | -9.51909 | -35.29859 | 33992 ft | 465 kts | 212° |
| 2026-04-21 14:45 | -9.57528 | -35.33116 | 33992 ft | 465 kts | 212° |
| 2026-04-21 14:46 | -9.63111 | -35.36353 | 33992 ft | 464 kts | 212° |
| 2026-04-21 14:46 | -9.68713 | -35.39602 | 33992 ft | 464 kts | 212° |
| 2026-04-21 14:47 | -9.74316 | -35.42853 | 33993 ft | 464 kts | 213° |
| 2026-04-21 14:47 | -9.79917 | -35.46105 | 33992 ft | 464 kts | 213° |
| 2026-04-21 14:48 | -9.85515 | -35.49356 | 33993 ft | 463 kts | 213° |
| 2026-04-21 14:48 | -9.91112 | -35.52607 | 33992 ft | 463 kts | 213° |
| 2026-04-21 14:49 | -9.96704 | -35.55857 | 33993 ft | 463 kts | 213° |
| 2026-04-21 14:49 | -10.02286 | -35.59103 | 33992 ft | 462 kts | 213° |
| 2026-04-21 14:50 | -10.07859 | -35.62344 | 33992 ft | 462 kts | 213° |
| 2026-04-21 14:50 | -10.13445 | -35.65591 | 33992 ft | 462 kts | 213° |
| 2026-04-21 14:51 | -10.18986 | -35.68816 | 33992 ft | 462 kts | 213° |
| 2026-04-21 14:51 | -10.24564 | -35.72067 | 33992 ft | 462 kts | 213° |
| 2026-04-21 14:52 | -10.30144 | -35.75320 | 33992 ft | 462 kts | 213° |
| 2026-04-21 14:52 | -10.35720 | -35.78570 | 33995 ft | 462 kts | 213° |
| 2026-04-21 14:53 | -10.41298 | -35.81824 | 33996 ft | 462 kts | 213° |
| 2026-04-21 14:53 | -10.46862 | -35.85069 | 33996 ft | 462 kts | 213° |
| 2026-04-21 14:54 | -10.52440 | -35.88325 | 33996 ft | 462 kts | 213° |
| 2026-04-21 14:54 | -10.58009 | -35.91578 | 33996 ft | 462 kts | 213° |
| 2026-04-21 14:55 | -10.63579 | -35.94834 | 33997 ft | 462 kts | 213° |
| 2026-04-21 14:55 | -10.69155 | -35.98089 | 33996 ft | 462 kts | 213° |
| 2026-04-21 14:56 | -10.74698 | -36.01326 | 33997 ft | 461 kts | 213° |
| 2026-04-21 14:56 | -10.80255 | -36.04575 | 33996 ft | 460 kts | 213° |
| 2026-04-21 14:57 | -10.85807 | -36.07821 | 33996 ft | 460 kts | 213° |
| 2026-04-21 14:57 | -10.91353 | -36.11064 | 33997 ft | 460 kts | 213° |
| 2026-04-21 14:58 | -10.96904 | -36.14316 | 33996 ft | 460 kts | 213° |
| 2026-04-21 14:58 | -11.02451 | -36.17568 | 33994 ft | 459 kts | 213° |
| 2026-04-21 14:59 | -11.07991 | -36.20817 | 33996 ft | 459 kts | 214° |
| 2026-04-21 14:59 | -11.13536 | -36.24069 | 33997 ft | 460 kts | 213° |
| 2026-04-21 15:00 | -11.19176 | -36.27073 | 33996 ft | 461 kts | 210° |
| 2026-04-21 15:00 | -11.24907 | -36.30017 | 33996 ft | 461 kts | 211° |
| 2026-04-21 15:01 | -11.30621 | -36.32990 | 33996 ft | 461 kts | 211° |
| 2026-04-21 15:01 | -11.36325 | -36.35975 | 33996 ft | 461 kts | 211° |
| 2026-04-21 15:02 | -11.42027 | -36.38965 | 33996 ft | 461 kts | 211° |
| 2026-04-21 15:02 | -11.47743 | -36.41959 | 33996 ft | 461 kts | 211° |
| 2026-04-21 15:03 | -11.53449 | -36.44952 | 33997 ft | 461 kts | 211° |
| 2026-04-21 15:03 | -11.59150 | -36.47945 | 33997 ft | 461 kts | 211° |
| 2026-04-21 15:04 | -11.64857 | -36.50945 | 33997 ft | 461 kts | 211° |
| 2026-04-21 15:04 | -11.70527 | -36.53926 | 33998 ft | 461 kts | 211° |
| 2026-04-21 15:05 | -11.76237 | -36.56929 | 33998 ft | 461 kts | 211° |
| 2026-04-21 15:05 | -11.84785 | -36.61429 | 33977 ft | 460 kts | 211° |
| 2026-04-21 15:06 | -11.90475 | -36.64426 | 33970 ft | 460 kts | 211° |
| 2026-04-21 15:06 | -11.96168 | -36.67426 | 33971 ft | 460 kts | 211° |
| 2026-04-21 15:07 | -12.01822 | -36.70407 | 33971 ft | 459 kts | 211° |
| 2026-04-21 15:07 | -12.07495 | -36.73395 | 33972 ft | 458 kts | 211° |
| 2026-04-21 15:08 | -12.13095 | -36.76350 | 33973 ft | 458 kts | 211° |
| 2026-04-21 15:08 | -12.18812 | -36.79370 | 33974 ft | 457 kts | 211° |
| 2026-04-21 15:09 | -12.24464 | -36.82358 | 33974 ft | 457 kts | 211° |
| 2026-04-21 15:09 | -12.30116 | -36.85346 | 33975 ft | 457 kts | 211° |
| 2026-04-21 15:10 | -12.35756 | -36.88329 | 33976 ft | 456 kts | 210° |
| 2026-04-21 15:10 | -12.41399 | -36.91314 | 33977 ft | 456 kts | 210° |
| 2026-04-21 15:11 | -12.47039 | -36.94300 | 33978 ft | 456 kts | 210° |
| 2026-04-21 15:11 | -12.52675 | -36.97286 | 33979 ft | 456 kts | 210° |
| 2026-04-21 15:12 | -12.58270 | -37.00252 | 33980 ft | 456 kts | 210° |
| 2026-04-21 15:12 | -12.63930 | -37.03253 | 33981 ft | 455 kts | 210° |
| 2026-04-21 15:13 | -12.69532 | -37.06217 | 33982 ft | 455 kts | 210° |
| 2026-04-21 15:13 | -12.75149 | -37.09196 | 33987 ft | 455 kts | 210° |
| 2026-04-21 15:14 | -12.80780 | -37.12182 | 33988 ft | 455 kts | 210° |
| 2026-04-21 15:14 | -12.85567 | -37.14721 | 33989 ft | 455 kts | 210° |
| 2026-04-21 15:15 | -12.91154 | -37.17691 | 33989 ft | 454 kts | 210° |
| 2026-04-21 15:15 | -12.96766 | -37.20676 | 33995 ft | 454 kts | 210° |
| 2026-04-21 15:16 | -13.02373 | -37.23661 | 33996 ft | 454 kts | 210° |
| 2026-04-21 15:16 | -13.07981 | -37.26646 | 33996 ft | 454 kts | 210° |
| 2026-04-21 15:17 | -13.13541 | -37.29607 | 33997 ft | 453 kts | 210° |
| 2026-04-21 15:17 | -13.19138 | -37.32589 | 33997 ft | 453 kts | 210° |
| 2026-04-21 15:18 | -13.24737 | -37.35575 | 33998 ft | 453 kts | 209° |
| 2026-04-21 15:18 | -13.30332 | -37.38562 | 33999 ft | 453 kts | 209° |
| 2026-04-21 15:19 | -13.35919 | -37.41546 | 33999 ft | 453 kts | 209° |
| 2026-04-21 15:19 | -13.41517 | -37.44532 | 34000 ft | 452 kts | 209° |
| 2026-04-21 15:20 | -13.47071 | -37.47493 | 34001 ft | 452 kts | 209° |
| 2026-04-21 15:20 | -13.52650 | -37.50473 | 34002 ft | 452 kts | 209° |
| 2026-04-21 15:21 | -13.58228 | -37.53454 | 34003 ft | 451 kts | 209° |
| 2026-04-21 15:21 | -13.63808 | -37.56439 | 34003 ft | 451 kts | 208° |
| 2026-04-21 15:22 | -13.69380 | -37.59421 | 34005 ft | 451 kts | 208° |
| 2026-04-21 15:22 | -13.74944 | -37.62401 | 34006 ft | 451 kts | 208° |
| 2026-04-21 15:23 | -13.80508 | -37.65383 | 34007 ft | 451 kts | 208° |
| 2026-04-21 15:23 | -13.85137 | -37.67864 | 34008 ft | 451 kts | 208° |
| 2026-04-21 15:24 | -13.90692 | -37.70844 | 34010 ft | 450 kts | 208° |
| 2026-04-21 15:24 | -13.96247 | -37.73825 | 34012 ft | 450 kts | 208° |
| 2026-04-21 15:25 | -14.01802 | -37.76809 | 34014 ft | 450 kts | 208° |
| 2026-04-21 15:25 | -14.07349 | -37.79788 | 34016 ft | 450 kts | 208° |
| 2026-04-21 15:26 | -14.12902 | -37.82774 | 34018 ft | 450 kts | 208° |
| 2026-04-21 15:26 | -14.18448 | -37.85757 | 34020 ft | 450 kts | 208° |
| 2026-04-21 15:27 | -14.23990 | -37.88739 | 34022 ft | 449 kts | 208° |
| 2026-04-21 15:27 | -14.29491 | -37.91702 | 34024 ft | 449 kts | 208° |
| 2026-04-21 15:28 | -14.35042 | -37.94692 | 34027 ft | 449 kts | 208° |
| 2026-04-21 15:28 | -14.40611 | -37.97694 | 34028 ft | 448 kts | 208° |
| 2026-04-21 15:29 | -14.46139 | -38.00676 | 34031 ft | 447 kts | 208° |
| 2026-04-21 15:29 | -14.51652 | -38.03651 | 34033 ft | 446 kts | 207° |
| 2026-04-21 15:30 | -14.57154 | -38.06622 | 34035 ft | 446 kts | 207° |
| 2026-04-21 15:30 | -14.62612 | -38.09571 | 34036 ft | 444 kts | 207° |
| 2026-04-21 15:31 | -14.68081 | -38.12528 | 34038 ft | 443 kts | 207° |
| 2026-04-21 15:31 | -14.73543 | -38.15480 | 34040 ft | 442 kts | 206° |
| 2026-04-21 15:32 | -14.78990 | -38.18424 | 34041 ft | 441 kts | 206° |
| 2026-04-21 15:32 | -14.84418 | -38.21365 | 34048 ft | 440 kts | 206° |
| 2026-04-21 15:33 | -14.89838 | -38.24304 | 34050 ft | 438 kts | 206° |
| 2026-04-21 15:33 | -14.95232 | -38.27231 | 34051 ft | 437 kts | 206° |
| 2026-04-21 15:34 | -15.00585 | -38.30135 | 34051 ft | 436 kts | 206° |
| 2026-04-21 15:34 | -15.05956 | -38.33052 | 34049 ft | 435 kts | 205° |
| 2026-04-21 15:35 | -15.11346 | -38.35980 | 34048 ft | 434 kts | 205° |
| 2026-04-21 15:35 | -15.16648 | -38.38863 | 34049 ft | 433 kts | 205° |
| 2026-04-21 15:36 | -15.21979 | -38.41764 | 34049 ft | 432 kts | 205° |
| 2026-04-21 15:36 | -15.27297 | -38.44660 | 34049 ft | 431 kts | 205° |
| 2026-04-21 15:37 | -15.32603 | -38.47548 | 34049 ft | 430 kts | 205° |
| 2026-04-21 15:37 | -15.37907 | -38.50430 | 34049 ft | 430 kts | 205° |
| 2026-04-21 15:38 | -15.43200 | -38.53313 | 34049 ft | 429 kts | 205° |
| 2026-04-21 15:38 | -15.48480 | -38.56192 | 34049 ft | 429 kts | 205° |
| 2026-04-21 15:39 | -15.53761 | -38.59073 | 34049 ft | 428 kts | 205° |
| 2026-04-21 15:39 | -15.59038 | -38.61949 | 34050 ft | 429 kts | 205° |
| 2026-04-21 15:40 | -15.64315 | -38.64830 | 34050 ft | 428 kts | 205° |
| 2026-04-21 15:40 | -15.69585 | -38.67713 | 34050 ft | 428 kts | 205° |
| 2026-04-21 15:41 | -15.74815 | -38.70576 | 34050 ft | 428 kts | 205° |
| 2026-04-21 15:41 | -15.80087 | -38.73463 | 34051 ft | 428 kts | 205° |
| 2026-04-21 15:42 | -15.85355 | -38.76350 | 34051 ft | 428 kts | 205° |
| 2026-04-21 15:42 | -15.90625 | -38.79238 | 34051 ft | 428 kts | 205° |
| 2026-04-21 15:43 | -15.95898 | -38.82126 | 34051 ft | 428 kts | 204° |
| 2026-04-21 15:43 | -16.01172 | -38.85015 | 34052 ft | 428 kts | 204° |
| 2026-04-21 15:44 | -16.06425 | -38.87901 | 34052 ft | 426 kts | 204° |
| 2026-04-21 15:44 | -16.11643 | -38.90770 | 34052 ft | 427 kts | 204° |
| 2026-04-21 15:45 | -16.16888 | -38.93656 | 34052 ft | 427 kts | 204° |
| 2026-04-21 15:45 | -16.22147 | -38.96549 | 34053 ft | 427 kts | 204° |
| 2026-04-21 15:46 | -16.27425 | -38.99383 | 34053 ft | 427 kts | 203° |
| 2026-04-21 15:46 | -16.32745 | -39.02188 | 34053 ft | 428 kts | 203° |
| 2026-04-21 15:47 | -16.38047 | -39.05000 | 34054 ft | 428 kts | 203° |
| 2026-04-21 15:47 | -16.43358 | -39.07817 | 34053 ft | 428 kts | 203° |
| 2026-04-21 15:48 | -16.48639 | -39.10733 | 34053 ft | 429 kts | 205° |
| 2026-04-21 15:48 | -16.53889 | -39.13697 | 34053 ft | 429 kts | 205° |
| 2026-04-21 15:49 | -16.59150 | -39.16660 | 34053 ft | 429 kts | 205° |
| 2026-04-21 15:49 | -16.64393 | -39.19611 | 34053 ft | 429 kts | 205° |
| 2026-04-21 15:50 | -16.69664 | -39.22578 | 34053 ft | 429 kts | 205° |
| 2026-04-21 15:50 | -16.74928 | -39.25539 | 34053 ft | 429 kts | 204° |
| 2026-04-21 15:51 | -16.80192 | -39.28490 | 34054 ft | 429 kts | 205° |
| 2026-04-21 15:51 | -16.85418 | -39.31434 | 34055 ft | 429 kts | 205° |
| 2026-04-21 15:52 | -16.90675 | -39.34401 | 34055 ft | 429 kts | 205° |
| 2026-04-21 15:52 | -16.95935 | -39.37372 | 34055 ft | 429 kts | 205° |
| 2026-04-21 15:53 | -17.01187 | -39.40338 | 34056 ft | 429 kts | 205° |
| 2026-04-21 15:53 | -17.06428 | -39.43300 | 34056 ft | 429 kts | 204° |
| 2026-04-21 15:54 | -17.11699 | -39.46281 | 34057 ft | 429 kts | 205° |
| 2026-04-21 15:54 | -17.16952 | -39.49254 | 34058 ft | 429 kts | 205° |
| 2026-04-21 15:55 | -17.22209 | -39.52232 | 34059 ft | 429 kts | 205° |
| 2026-04-21 15:55 | -17.27455 | -39.55207 | 34059 ft | 429 kts | 205° |
| 2026-04-21 15:56 | -17.32701 | -39.58183 | 34059 ft | 429 kts | 205° |
| 2026-04-21 15:56 | -17.37946 | -39.61148 | 34061 ft | 428 kts | 205° |
| 2026-04-21 15:57 | -17.43186 | -39.64117 | 34062 ft | 428 kts | 205° |
| 2026-04-21 15:57 | -17.48383 | -39.67067 | 34062 ft | 428 kts | 205° |
| 2026-04-21 15:58 | -17.53622 | -39.70044 | 34064 ft | 428 kts | 205° |
| 2026-04-21 15:58 | -17.58855 | -39.73019 | 34065 ft | 428 kts | 205° |
| 2026-04-21 15:59 | -17.64087 | -39.75996 | 34066 ft | 428 kts | 205° |
| 2026-04-21 15:59 | -17.69318 | -39.78974 | 34067 ft | 428 kts | 205° |
| 2026-04-21 16:00 | -17.74547 | -39.81948 | 34068 ft | 428 kts | 205° |
| 2026-04-21 16:00 | -17.79779 | -39.84929 | 34069 ft | 428 kts | 205° |
| 2026-04-21 16:01 | -17.85007 | -39.87913 | 34070 ft | 428 kts | 205° |
| 2026-04-21 16:01 | -17.90233 | -39.90901 | 34071 ft | 428 kts | 205° |
| 2026-04-21 16:02 | -17.95456 | -39.93887 | 34073 ft | 427 kts | 205° |
| 2026-04-21 16:02 | -18.00683 | -39.96877 | 34073 ft | 428 kts | 205° |
| 2026-04-21 16:03 | -18.05915 | -39.99846 | 34074 ft | 427 kts | 205° |
| 2026-04-21 16:03 | -18.11138 | -40.02810 | 34075 ft | 427 kts | 205° |
| 2026-04-21 16:04 | -18.16378 | -40.05787 | 34076 ft | 427 kts | 205° |
| 2026-04-21 16:04 | -18.21611 | -40.08764 | 34077 ft | 427 kts | 205° |
| 2026-04-21 16:05 | -18.26800 | -40.11719 | 34073 ft | 427 kts | 205° |
| 2026-04-21 16:05 | -18.32044 | -40.14702 | 34060 ft | 427 kts | 205° |
| 2026-04-21 16:06 | -18.37280 | -40.17674 | 34056 ft | 427 kts | 205° |
| 2026-04-21 16:06 | -18.42506 | -40.20648 | 34056 ft | 427 kts | 205° |
| 2026-04-21 16:07 | -18.47732 | -40.23626 | 34057 ft | 427 kts | 205° |
| 2026-04-21 16:07 | -18.52914 | -40.26582 | 34057 ft | 427 kts | 205° |
| 2026-04-21 16:08 | -18.60749 | -40.31056 | 34069 ft | 427 kts | 205° |
| 2026-04-21 16:09 | -18.65972 | -40.34041 | 34070 ft | 426 kts | 205° |
| 2026-04-21 16:09 | -18.71183 | -40.37022 | 34070 ft | 426 kts | 205° |
| 2026-04-21 16:10 | -18.75505 | -40.39496 | 34070 ft | 426 kts | 206° |
| 2026-04-21 16:10 | -18.80725 | -40.42485 | 34070 ft | 426 kts | 206° |
| 2026-04-21 16:11 | -18.85925 | -40.45466 | 34071 ft | 426 kts | 206° |
| 2026-04-21 16:11 | -18.91132 | -40.48452 | 34071 ft | 425 kts | 206° |
| 2026-04-21 16:12 | -18.96326 | -40.51434 | 34071 ft | 425 kts | 206° |
| 2026-04-21 16:12 | -19.01518 | -40.54416 | 34071 ft | 425 kts | 206° |
| 2026-04-21 16:13 | -19.06726 | -40.57409 | 34070 ft | 425 kts | 206° |
| 2026-04-21 16:13 | -19.11921 | -40.60398 | 34070 ft | 425 kts | 206° |
| 2026-04-21 16:14 | -19.17114 | -40.63387 | 34071 ft | 425 kts | 206° |
| 2026-04-21 16:14 | -19.22300 | -40.66375 | 34070 ft | 424 kts | 206° |
| 2026-04-21 16:15 | -19.27455 | -40.69347 | 34070 ft | 424 kts | 206° |
| 2026-04-21 16:15 | -19.32638 | -40.72329 | 34064 ft | 424 kts | 206° |
| 2026-04-21 16:16 | -19.37824 | -40.75322 | 34061 ft | 425 kts | 206° |
| 2026-04-21 16:16 | -19.43012 | -40.78322 | 34061 ft | 425 kts | 206° |
| 2026-04-21 16:17 | -19.48198 | -40.81324 | 34061 ft | 424 kts | 206° |
| 2026-04-21 16:17 | -19.53381 | -40.84325 | 34058 ft | 424 kts | 206° |
| 2026-04-21 16:18 | -19.58563 | -40.87328 | 34058 ft | 424 kts | 206° |
| 2026-04-21 16:18 | -19.63751 | -40.90331 | 34058 ft | 425 kts | 207° |
| 2026-04-21 16:19 | -19.68936 | -40.93345 | 34058 ft | 425 kts | 207° |
| 2026-04-21 16:19 | -19.74080 | -40.96341 | 34058 ft | 425 kts | 207° |
| 2026-04-21 16:20 | -19.79272 | -40.99367 | 34058 ft | 425 kts | 207° |
| 2026-04-21 16:20 | -19.84461 | -41.02390 | 34058 ft | 425 kts | 207° |
| 2026-04-21 16:21 | -19.89646 | -41.05421 | 34058 ft | 426 kts | 207° |
| 2026-04-21 16:21 | -19.94832 | -41.08462 | 34059 ft | 426 kts | 207° |
| 2026-04-21 16:22 | -20.00027 | -41.11518 | 34059 ft | 426 kts | 207° |
| 2026-04-21 16:22 | -20.05204 | -41.14567 | 34059 ft | 425 kts | 208° |
| 2026-04-21 16:23 | -20.10346 | -41.17596 | 34059 ft | 426 kts | 208° |
| 2026-04-21 16:23 | -20.15537 | -41.20656 | 34059 ft | 426 kts | 208° |
| 2026-04-21 16:24 | -20.20757 | -41.23734 | 34059 ft | 426 kts | 208° |
| 2026-04-21 16:24 | -20.25920 | -41.26768 | 34059 ft | 427 kts | 208° |
| 2026-04-21 16:25 | -20.31110 | -41.29831 | 34063 ft | 426 kts | 208° |
| 2026-04-21 16:25 | -20.36300 | -41.32901 | 34063 ft | 426 kts | 208° |
| 2026-04-21 16:26 | -20.41485 | -41.35970 | 34063 ft | 426 kts | 208° |
| 2026-04-21 16:26 | -20.46670 | -41.39040 | 34063 ft | 426 kts | 208° |
| 2026-04-21 16:27 | -20.51866 | -41.42110 | 34063 ft | 426 kts | 208° |
| 2026-04-21 16:27 | -20.57064 | -41.45161 | 34064 ft | 427 kts | 208° |
| 2026-04-21 16:28 | -20.62272 | -41.48225 | 34063 ft | 427 kts | 208° |
| 2026-04-21 16:28 | -20.67476 | -41.51290 | 34063 ft | 427 kts | 208° |
| 2026-04-21 16:29 | -20.72677 | -41.54355 | 34063 ft | 427 kts | 208° |
| 2026-04-21 16:29 | -20.77877 | -41.57422 | 34063 ft | 427 kts | 208° |
| 2026-04-21 16:30 | -20.83049 | -41.60464 | 34063 ft | 427 kts | 208° |
| 2026-04-21 16:30 | -20.88252 | -41.63529 | 34063 ft | 427 kts | 208° |
| 2026-04-21 16:31 | -20.93452 | -41.66593 | 34063 ft | 427 kts | 208° |
| 2026-04-21 16:31 | -20.98651 | -41.69662 | 34062 ft | 427 kts | 208° |
| 2026-04-21 16:32 | -21.03845 | -41.72737 | 34062 ft | 426 kts | 208° |
| 2026-04-21 16:32 | -21.09042 | -41.75818 | 34062 ft | 426 kts | 208° |
| 2026-04-21 16:33 | -21.14241 | -41.78902 | 34060 ft | 426 kts | 208° |
| 2026-04-21 16:33 | -21.19431 | -41.81981 | 34060 ft | 426 kts | 209° |
| 2026-04-21 16:34 | -21.24586 | -41.85042 | 34060 ft | 426 kts | 209° |
| 2026-04-21 16:34 | -21.29772 | -41.88125 | 34068 ft | 426 kts | 209° |
| 2026-04-21 16:35 | -21.34963 | -41.91215 | 34077 ft | 426 kts | 209° |
| 2026-04-21 16:35 | -21.40147 | -41.94303 | 34079 ft | 426 kts | 209° |
| 2026-04-21 16:36 | -21.45331 | -41.97393 | 34078 ft | 426 kts | 209° |
| 2026-04-21 16:36 | -21.50517 | -42.00486 | 34080 ft | 426 kts | 209° |
| 2026-04-21 16:37 | -21.55718 | -42.03576 | 34081 ft | 428 kts | 209° |
| 2026-04-21 16:37 | -21.60925 | -42.06672 | 34083 ft | 427 kts | 210° |
| 2026-04-21 16:38 | -21.66121 | -42.09777 | 33490 ft | 425 kts | 210° |
| 2026-04-21 16:38 | -21.68709 | -42.11327 | 32686 ft | 426 kts | 210° |
| 2026-04-21 16:38 | -21.71309 | -42.12884 | 31859 ft | 428 kts | 210° |
| 2026-04-21 16:38 | -21.73907 | -42.14440 | 31193 ft | 427 kts | 210° |
| 2026-04-21 16:39 | -21.76502 | -42.15996 | 30449 ft | 427 kts | 210° |
| 2026-04-21 16:39 | -21.79109 | -42.17558 | 29660 ft | 429 kts | 210° |
| 2026-04-21 16:39 | -21.81702 | -42.19112 | 29024 ft | 426 kts | 210° |
| 2026-04-21 16:39 | -21.84255 | -42.20645 | 28402 ft | 423 kts | 210° |
| 2026-04-21 16:40 | -21.86809 | -42.22184 | 27779 ft | 420 kts | 210° |
| 2026-04-21 16:40 | -21.89326 | -42.23704 | 27165 ft | 416 kts | 210° |
| 2026-04-21 16:40 | -21.91860 | -42.25234 | 26546 ft | 412 kts | 210° |
| 2026-04-21 16:40 | -21.94350 | -42.26740 | 25831 ft | 410 kts | 210° |
| 2026-04-21 16:41 | -21.96028 | -42.27755 | 25381 ft | 409 kts | 210° |
| 2026-04-21 16:41 | -21.99288 | -42.29727 | 24565 ft | 403 kts | 210° |
| 2026-04-21 16:41 | -22.01723 | -42.31201 | 23958 ft | 399 kts | 210° |
| 2026-04-21 16:41 | -22.04129 | -42.32658 | 23361 ft | 395 kts | 209° |
| 2026-04-21 16:42 | -22.06517 | -42.34105 | 22766 ft | 391 kts | 209° |
| 2026-04-21 16:42 | -22.08879 | -42.35536 | 22177 ft | 388 kts | 209° |
| 2026-04-21 16:42 | -22.11188 | -42.36936 | 21600 ft | 384 kts | 209° |
| 2026-04-21 16:42 | -22.13541 | -42.38363 | 21011 ft | 381 kts | 209° |
| 2026-04-21 16:43 | -22.15843 | -42.39750 | 20433 ft | 378 kts | 209° |
| 2026-04-21 16:43 | -22.18125 | -42.41129 | 19862 ft | 375 kts | 209° |
| 2026-04-21 16:43 | -22.20389 | -42.42499 | 19400 ft | 369 kts | 209° |
| 2026-04-21 16:43 | -22.22590 | -42.43833 | 19148 ft | 358 kts | 209° |
| 2026-04-21 16:44 | -22.24742 | -42.45137 | 18772 ft | 351 kts | 209° |
| 2026-04-21 16:44 | -22.26859 | -42.46415 | 18266 ft | 348 kts | 209° |
| 2026-04-21 16:44 | -22.28967 | -42.47692 | 17729 ft | 346 kts | 209° |
| 2026-04-21 16:44 | -22.31062 | -42.48964 | 17236 ft | 344 kts | 209° |
| 2026-04-21 16:45 | -22.33139 | -42.50227 | 16739 ft | 341 kts | 209° |
| 2026-04-21 16:45 | -22.35198 | -42.51480 | 16237 ft | 338 kts | 209° |
| 2026-04-21 16:45 | -22.37243 | -42.52725 | 15728 ft | 336 kts | 209° |
| 2026-04-21 16:45 | -22.39226 | -42.53933 | 15507 ft | 325 kts | 209° |
| 2026-04-21 16:46 | -22.41159 | -42.55111 | 15275 ft | 315 kts | 209° |
| 2026-04-21 16:46 | -22.43060 | -42.56270 | 14855 ft | 311 kts | 209° |
| 2026-04-21 16:46 | -22.44940 | -42.57416 | 14454 ft | 307 kts | 209° |
| 2026-04-21 16:46 | -22.46779 | -42.58538 | 14189 ft | 299 kts | 209° |
| 2026-04-21 16:47 | -22.48576 | -42.59634 | 13806 ft | 295 kts | 209° |
| 2026-04-21 16:47 | -22.50361 | -42.60721 | 13371 ft | 293 kts | 209° |
| 2026-04-21 16:47 | -22.52131 | -42.61802 | 12938 ft | 291 kts | 209° |
| 2026-04-21 16:47 | -22.53892 | -42.62877 | 12500 ft | 290 kts | 209° |
| 2026-04-21 16:48 | -22.55644 | -42.63943 | 12054 ft | 288 kts | 209° |
| 2026-04-21 16:48 | -22.57388 | -42.65007 | 11623 ft | 286 kts | 209° |
| 2026-04-21 16:48 | -22.59119 | -42.66064 | 11175 ft | 285 kts | 209° |
| 2026-04-21 16:48 | -22.60839 | -42.67115 | 10747 ft | 283 kts | 209° |
| 2026-04-21 16:49 | -22.62552 | -42.68161 | 10319 ft | 281 kts | 209° |
| 2026-04-21 16:49 | -22.64247 | -42.69208 | 9875 ft | 280 kts | 211° |
| 2026-04-21 16:49 | -22.65689 | -42.70599 | 9406 ft | 279 kts | 232° |
| 2026-04-21 16:49 | -22.66579 | -42.72443 | 9002 ft | 276 kts | 249° |
| 2026-04-21 16:50 | -22.67135 | -42.74400 | 8591 ft | 274 kts | 254° |
| 2026-04-21 16:50 | -22.67608 | -42.76391 | 8170 ft | 273 kts | 256° |
| 2026-04-21 16:50 | -22.68010 | -42.78387 | 7752 ft | 271 kts | 259° |
| 2026-04-21 16:50 | -22.68386 | -42.80385 | 7329 ft | 269 kts | 253° |
| 2026-04-21 16:51 | -22.69224 | -42.82181 | 6927 ft | 266 kts | 235° |
| 2026-04-21 16:51 | -22.70067 | -42.83285 | 6771 ft | 261 kts | 226° |
| 2026-04-21 16:51 | -22.71403 | -42.84665 | 6384 ft | 266 kts | 224° |
| 2026-04-21 16:51 | -22.72740 | -42.86033 | 6189 ft | 264 kts | 223° |
| 2026-04-21 16:52 | -22.74070 | -42.87398 | 5952 ft | 263 kts | 223° |
| 2026-04-21 16:52 | -22.74993 | -42.88348 | 5831 ft | 263 kts | 223° |
| 2026-04-21 16:52 | -22.75872 | -42.89253 | 5716 ft | 263 kts | 224° |
| 2026-04-21 16:52 | -22.77623 | -42.91058 | 5492 ft | 262 kts | 224° |
| 2026-04-21 16:53 | -22.78957 | -42.92435 | 5323 ft | 261 kts | 224° |
| 2026-04-21 16:53 | -22.80249 | -42.93770 | 5169 ft | 259 kts | 224° |
| 2026-04-21 16:53 | -22.81532 | -42.95097 | 4993 ft | 250 kts | 224° |
| 2026-04-21 16:53 | -22.82758 | -42.96364 | 4893 ft | 237 kts | 224° |
| 2026-04-21 16:54 | -22.83918 | -42.97564 | 4800 ft | 224 kts | 224° |
| 2026-04-21 16:54 | -22.85017 | -42.98701 | 4710 ft | 212 kts | 224° |
| 2026-04-21 16:54 | -22.86055 | -42.99775 | 4590 ft | 202 kts | 224° |
| 2026-04-21 16:54 | -22.87060 | -43.00815 | 4361 ft | 198 kts | 224° |
| 2026-04-21 16:55 | -22.88052 | -43.01842 | 4142 ft | 194 kts | 224° |
| 2026-04-21 16:55 | -22.88998 | -43.02820 | 4037 ft | 183 kts | 224° |
| 2026-04-21 16:55 | -22.89893 | -43.03746 | 3946 ft | 171 kts | 224° |
| 2026-04-21 16:55 | -22.90725 | -43.04606 | 3858 ft | 166 kts | 224° |
| 2026-04-21 16:56 | -22.91588 | -43.05500 | 3770 ft | 172 kts | 224° |
| 2026-04-21 16:56 | -22.92283 | -43.06463 | 3577 ft | 163 kts | 248° |
| 2026-04-21 16:56 | -22.92301 | -43.07289 | 3547 ft | 166 kts | 278° |
| 2026-04-21 16:56 | -22.91870 | -43.08447 | 3606 ft | 164 kts | 294° |
| 2026-04-21 16:57 | -22.91223 | -43.09841 | 3510 ft | 146 kts | 297° |
| 2026-04-21 16:57 | -22.90701 | -43.10781 | 3108 ft | 147 kts | 301° |
| 2026-04-21 16:57 | -22.90325 | -43.11414 | 2850 ft | 146 kts | 302° |
| 2026-04-21 16:57 | -22.89771 | -43.12340 | 2470 ft | 148 kts | 302° |
| 2026-04-21 16:58 | -22.89212 | -43.13276 | 2238 ft | 147 kts | 301° |
| 2026-04-21 16:58 | -22.88651 | -43.14213 | 2053 ft | 148 kts | 301° |
| 2026-04-21 16:58 | -22.88087 | -43.15156 | 1868 ft | 150 kts | 301° |
| 2026-04-21 16:58 | -22.87516 | -43.16111 | 1674 ft | 151 kts | 301° |
| 2026-04-21 16:59 | -22.86959 | -43.17042 | 1514 ft | 150 kts | 301° |
| 2026-04-21 16:59 | -22.86387 | -43.18021 | 1307 ft | 155 kts | 299° |
| 2026-04-21 16:59 | -22.85830 | -43.19021 | 1119 ft | 154 kts | 298° |
| 2026-04-21 16:59 | -22.85303 | -43.20031 | 993 ft | 154 kts | 296° |
| 2026-04-21 17:00 | -22.84767 | -43.21033 | 833 ft | 154 kts | 299° |
| 2026-04-21 17:00 | -22.84164 | -43.22010 | 597 ft | 156 kts | 304° |
| 2026-04-21 17:00 | -22.83763 | -43.22613 | 448 ft | 156 kts | 307° |
| 2026-04-21 17:00 | -22.82882 | -43.23898 | 125 ft | 153 kts | 306° |
| 2026-04-21 17:01 | -22.82263 | -43.24834 | 60 ft | 152 kts | 306° |
| 2026-04-21 17:01 | -22.81659 | -43.25766 | 37 ft | 143 kts | 303° |
| 2026-04-21 17:01 | -22.81180 | -43.26499 | 36 ft | 80 kts | 286° |
| 2026-04-21 17:01 | -22.81361 | -43.27992 | 218 ft | 244 kts | 257° |
| 2026-04-21 17:02 | -22.81741 | -43.29777 | 1112 ft | 241 kts | 255° |
| 2026-04-21 17:02 | -22.82145 | -43.31620 | 1913 ft | 245 kts | 257° |
| 2026-04-21 17:02 | -22.82512 | -43.33389 | 2599 ft | 241 kts | 256° |
| 2026-04-21 17:02 | -22.82833 | -43.35046 | 3893 ft | 201 kts | 258° |
| 2026-04-21 17:03 | -22.83002 | -43.36318 | 5386 ft | 156 kts | 265° |
| 2026-04-21 17:03 | -22.82695 | -43.37509 | 5672 ft | 175 kts | 299° |
| 2026-04-21 17:03 | -22.82273 | -43.38011 | 5618 ft | 173 kts | 318° |